KPEA

Pella Municipal Airport

Pella, Iowa, USA
METAR KPEA 170015Z AUTO 32008KT 10SM CLR 03/M01 A3024 RMK AO2 T00301010
Observed Flight Rules
Dec-17 @ 00:15 UTC (21 minutes ago) Visual Flight Rules
Wind Visibility Clouds
320° at 8 knots 10 miles
  • Clear skies
Temperatures Readings
Current 3°C / 37°F
Dewpoint -1°C / 30°F
Humidity 75%
Altimeter 30.24" Hg
Pressure 1024 hPa
Elevation 270
METAR KPEA 170015Z AUTO 32008KT 10SM CLR 03/M01 A3024 RMK AO2 T00301010
Observed Flight Rules
Dec-17 @ 00:15 UTC
(21 minutes ago)
VFR
Wind Visibility
320° at 8 knots 10 miles
Clouds
  • Clear skies
Temperature Dewpoint
3°C / 37°F -1°C / 30°F
Humidity Altimeter Pressure
75% 30.24" Hg 1024 hPa